createdAt,value
2018-04-01T00:01:24.787Z,6.22
2018-04-01T00:03:57.990Z,6.16
2018-04-01T00:06:31.125Z,6.20
2018-04-01T00:09:04.418Z,6.21
2018-04-01T00:11:37.643Z,6.25
2018-04-01T00:14:10.718Z,6.20
2018-04-01T00:16:43.710Z,6.14
2018-04-01T00:19:16.718Z,6.12
2018-04-01T00:21:49.817Z,6.05
2018-04-01T00:24:22.878Z,6.12
2018-04-01T00:26:56.024Z,6.15
2018-04-01T00:29:29.245Z,6.09
2018-04-01T00:32:02.530Z,6.05
2018-04-01T00:34:35.570Z,6.10
2018-04-01T00:37:08.690Z,6.15
2018-04-01T00:39:41.715Z,6.04
2018-04-01T00:42:14.889Z,6.03
2018-04-01T00:44:48.114Z,6.05
2018-04-01T00:47:21.385Z,6.02
2018-04-01T00:49:54.398Z,5.98
2018-04-01T00:52:27.634Z,5.92
2018-04-01T00:55:00.686Z,5.89
2018-04-01T00:57:33.826Z,5.89
2018-04-01T01:00:07.139Z,5.88
2018-04-01T01:02:40.203Z,5.79
2018-04-01T01:05:13.210Z,5.81
2018-04-01T01:07:46.498Z,5.77
2018-04-01T01:10:19.483Z,5.73
2018-04-01T01:12:52.578Z,5.68
2018-04-01T01:15:25.589Z,5.57
2018-04-01T01:17:58.732Z,5.55
2018-04-01T01:20:31.873Z,5.46
2018-04-01T01:23:04.962Z,5.41
2018-04-01T01:25:38.221Z,5.32
2018-04-01T01:28:11.422Z,5.29
2018-04-01T01:30:44.627Z,5.26
2018-04-01T01:33:17.878Z,5.20
2018-04-01T01:35:50.962Z,5.15
2018-04-01T01:38:24.199Z,5.09
2018-04-01T01:40:57.222Z,5.07
2018-04-01T01:43:30.429Z,5.06
2018-04-01T01:46:12.368Z,4.98
2018-04-01T01:48:45.500Z,4.93
2018-04-01T01:51:18.538Z,4.91
2018-04-01T01:53:51.757Z,4.88
2018-04-01T01:56:24.754Z,4.91
2018-04-01T01:58:57.850Z,4.97
2018-04-01T02:01:30.850Z,5.01
2018-04-01T02:04:04.094Z,5.08
2018-04-01T02:06:37.273Z,5.06
2018-04-01T02:09:10.341Z,5.03
2018-04-01T02:11:43.429Z,5.09
2018-04-01T02:14:16.577Z,5.22
2018-04-01T02:16:49.706Z,5.29
2018-04-01T02:19:22.821Z,5.33
2018-04-01T02:21:55.979Z,5.43
2018-04-01T02:24:29.118Z,5.48
2018-04-01T02:30:09.312Z,5.36
2018-04-01T02:32:42.386Z,5.37
2018-04-01T02:35:15.563Z,5.35
2018-04-01T02:37:48.592Z,5.42
2018-04-01T02:40:21.764Z,5.40
2018-04-01T02:42:55.099Z,5.41
2018-04-01T02:45:28.286Z,5.40
2018-04-01T02:48:01.287Z,5.42
2018-04-01T02:50:34.466Z,5.43
2018-04-01T02:53:07.681Z,5.47
2018-04-01T02:55:40.858Z,5.50
2018-04-01T02:58:13.865Z,5.52
2018-04-01T03:00:47.108Z,5.49
2018-04-01T03:03:20.269Z,5.58
2018-04-01T03:05:53.382Z,5.61
2018-04-01T03:08:26.448Z,5.63
2018-04-01T03:10:59.551Z,5.60
2018-04-01T03:13:32.610Z,5.71
2018-04-01T03:16:05.826Z,5.67
2018-04-01T03:18:38.819Z,5.73
2018-04-01T03:21:11.814Z,5.69
2018-04-01T03:23:44.782Z,5.85
2018-04-01T03:26:17.982Z,5.80
2018-04-01T03:28:51.298Z,5.76
2018-04-01T03:31:24.476Z,5.76
2018-04-01T03:33:57.488Z,5.75
2018-04-01T03:36:30.594Z,5.82
2018-04-01T03:39:03.598Z,5.89
2018-04-01T03:41:36.889Z,5.83
2018-04-01T03:44:10.151Z,5.77
2018-04-01T03:46:43.349Z,5.74
2018-04-01T03:49:16.529Z,5.77
2018-04-01T03:51:49.772Z,5.70
2018-04-01T03:54:22.771Z,5.81
2018-04-01T03:56:55.933Z,5.74
2018-04-01T03:59:28.934Z,5.60
2018-04-01T04:02:02.050Z,5.51
2018-04-01T04:04:35.274Z,5.76
2018-04-01T04:07:16.130Z,5.48
2018-04-01T04:09:49.546Z,5.64
2018-04-01T04:12:22.678Z,4.91
2018-04-01T04:14:55.882Z,4.70
2018-04-01T04:17:29.011Z,4.62
2018-04-01T04:20:02.093Z,4.57
2018-04-01T04:22:35.178Z,4.47
2018-04-01T04:25:08.177Z,4.42
2018-04-01T04:27:41.473Z,4.50
2018-04-01T04:30:14.657Z,4.49
2018-04-01T04:32:47.824Z,4.46
2018-04-01T04:35:20.909Z,4.55
2018-04-01T04:37:54.062Z,4.57
2018-04-01T04:40:27.093Z,4.49
2018-04-01T04:43:00.282Z,4.54
2018-04-01T04:45:33.329Z,4.52
2018-04-01T04:48:06.496Z,4.63
2018-04-01T04:50:39.821Z,4.68
2018-04-01T04:53:12.981Z,4.64
2018-04-01T04:55:46.056Z,4.56
2018-04-01T04:58:19.214Z,4.51
2018-04-01T05:00:52.316Z,4.56
2018-04-01T05:03:25.473Z,4.51
2018-04-01T05:05:58.653Z,4.50
2018-04-01T05:08:31.943Z,4.60
2018-04-01T05:11:05.177Z,4.57
2018-04-01T05:13:38.257Z,4.53
2018-04-01T05:16:11.309Z,4.51
2018-04-01T05:18:44.466Z,4.54
2018-04-01T05:21:17.593Z,4.58
2018-04-01T05:23:50.701Z,4.61
2018-04-01T05:26:23.663Z,4.57
2018-04-01T05:28:56.789Z,4.58
2018-04-01T05:31:29.770Z,4.55
2018-04-01T05:34:02.957Z,4.53
2018-04-01T05:36:35.955Z,4.52
2018-04-01T05:39:09.032Z,4.49
2018-04-01T05:41:42.162Z,4.52
2018-04-01T05:44:15.325Z,4.59
2018-04-01T05:46:48.401Z,4.56
2018-04-01T05:49:21.609Z,4.55
2018-04-01T05:51:54.827Z,4.56
2018-04-01T05:54:27.877Z,4.58
2018-04-01T05:57:00.888Z,4.58
2018-04-01T05:59:34.033Z,4.57
2018-04-01T06:02:07.283Z,4.64
2018-04-01T06:04:40.349Z,4.59
2018-04-01T06:07:13.557Z,4.59
2018-04-01T06:09:46.790Z,4.61
2018-04-01T06:12:19.828Z,4.64
2018-04-01T06:14:53.055Z,4.66
2018-04-01T06:17:26.061Z,4.69
2018-04-01T06:19:59.089Z,4.75
2018-04-01T06:22:32.133Z,4.77
2018-04-01T06:25:05.262Z,4.93
2018-04-01T06:27:38.434Z,4.84
2018-04-01T06:30:11.647Z,4.85
2018-04-01T06:32:44.882Z,4.84
2018-04-01T06:35:18.005Z,4.91
2018-04-01T06:37:51.000Z,4.76
2018-04-01T06:40:24.040Z,4.69
2018-04-01T06:42:57.028Z,4.58
2018-04-01T06:45:30.226Z,4.64
2018-04-01T06:48:03.274Z,4.56
2018-04-01T06:50:36.442Z,4.53
2018-04-01T06:53:09.483Z,4.46
2018-04-01T06:55:42.597Z,4.42
2018-04-01T06:58:15.773Z,4.35
2018-04-01T07:00:48.939Z,4.32
2018-04-01T07:03:21.967Z,4.19
2018-04-01T07:05:55.173Z,4.20
2018-04-01T07:08:28.155Z,4.28
2018-04-01T07:11:01.212Z,4.26
2018-04-01T07:13:34.382Z,4.27
2018-04-01T07:16:07.511Z,4.30
2018-04-01T07:18:40.786Z,4.25
2018-04-01T07:21:13.780Z,4.24
2018-04-01T07:23:46.845Z,4.28
2018-04-01T07:26:20.013Z,4.05
2018-04-01T07:28:53.517Z,4.12
2018-04-01T07:31:26.681Z,4.09
2018-04-01T07:33:59.686Z,4.14
2018-04-01T07:36:32.783Z,4.17
2018-04-01T07:39:06.031Z,4.24
2018-04-01T07:41:39.136Z,4.26
2018-04-01T07:44:12.202Z,4.27
2018-04-01T07:46:45.251Z,4.29
2018-04-01T07:49:18.238Z,4.35
2018-04-01T07:51:51.386Z,4.49
2018-04-01T07:54:24.398Z,4.49
2018-04-01T07:56:57.657Z,4.46
2018-04-01T07:59:30.905Z,4.46
2018-04-01T08:02:04.122Z,4.43
2018-04-01T08:04:37.366Z,4.51
2018-04-01T08:07:10.601Z,4.44
2018-04-01T08:09:43.645Z,4.48
2018-04-01T08:12:16.895Z,4.58
2018-04-01T08:14:50.082Z,4.55
2018-04-01T08:17:23.461Z,4.57
2018-04-01T08:19:56.478Z,4.57
2018-04-01T08:22:29.661Z,4.59
2018-04-01T08:25:02.930Z,4.67
2018-04-01T08:27:35.941Z,4.72
2018-04-01T08:30:09.197Z,4.72
2018-04-01T08:32:42.389Z,4.74
2018-04-01T08:35:15.626Z,4.74
2018-04-01T08:37:49.093Z,4.90
2018-04-01T08:40:22.238Z,4.88
2018-04-01T08:42:55.454Z,4.91
2018-04-01T08:45:28.692Z,5.00
2018-04-01T08:48:01.862Z,5.04
2018-04-01T08:50:34.919Z,5.07
2018-04-01T08:53:08.003Z,5.10
2018-04-01T08:55:41.060Z,5.14
2018-04-01T08:58:14.185Z,5.14
2018-04-01T09:00:47.413Z,5.17
2018-04-01T09:03:20.561Z,5.01
2018-04-01T09:05:53.573Z,5.15
2018-04-01T09:08:26.761Z,5.26
2018-04-01T09:10:59.816Z,5.32
2018-04-01T09:13:32.922Z,5.21
2018-04-01T09:16:05.945Z,5.29
2018-04-01T09:18:38.933Z,5.35
2018-04-01T09:21:12.091Z,5.29
2018-04-01T09:23:45.636Z,5.20
2018-04-01T09:26:18.808Z,5.36
2018-04-01T09:28:51.992Z,5.34
2018-04-01T09:31:25.242Z,5.30
2018-04-01T09:33:58.372Z,5.36
2018-04-01T09:39:56.964Z,5.32
2018-04-01T09:42:30.249Z,5.37
2018-04-01T09:45:03.337Z,5.36
2018-04-01T09:47:36.345Z,5.48
2018-04-01T09:50:09.356Z,5.54
2018-04-01T09:52:42.660Z,5.49
2018-04-01T09:55:15.802Z,5.56
2018-04-01T09:57:49.021Z,5.52
2018-04-01T10:00:25.982Z,5.51
2018-04-01T10:02:59.704Z,5.41
2018-04-01T10:05:33.384Z,5.45
2018-04-01T10:08:06.882Z,5.39
2018-04-01T10:10:40.585Z,5.57
2018-04-01T10:13:14.259Z,5.58
2018-04-01T10:15:48.010Z,5.67
2018-04-01T10:18:21.571Z,5.58
2018-04-01T10:20:55.106Z,5.64
2018-04-01T10:23:28.773Z,5.48
2018-04-01T10:26:02.529Z,5.53
2018-04-01T10:28:36.123Z,5.67
2018-04-01T10:31:09.673Z,5.56
2018-04-01T10:33:43.237Z,5.70
2018-04-01T10:36:16.788Z,5.59
2018-04-01T10:38:50.350Z,5.53
2018-04-01T10:41:23.917Z,5.62
2018-04-01T10:43:57.625Z,5.58
2018-04-01T10:46:31.225Z,5.72
2018-04-01T10:49:04.943Z,5.82
2018-04-01T10:51:38.646Z,5.76
2018-04-01T10:54:11.709Z,5.77
2018-04-01T10:56:44.853Z,5.74
2018-04-01T10:59:18.125Z,5.85
2018-04-01T11:01:51.343Z,5.68
2018-04-01T11:04:24.632Z,5.75
2018-04-01T11:06:57.731Z,5.84
2018-04-01T11:09:30.957Z,5.93
2018-04-01T11:12:04.032Z,5.89
2018-04-01T11:14:37.037Z,5.97
2018-04-01T11:17:10.497Z,6.05
2018-04-01T11:19:43.730Z,6.00
2018-04-01T11:22:16.710Z,5.89
2018-04-01T11:24:49.702Z,5.80
2018-04-01T11:27:22.841Z,5.70
2018-04-01T11:29:56.028Z,5.66
2018-04-01T11:32:29.272Z,5.72
2018-04-01T11:35:02.534Z,5.63
2018-04-01T11:37:35.618Z,5.71
2018-04-01T11:40:08.620Z,5.66
2018-04-01T11:42:41.716Z,5.64
2018-04-01T11:45:14.695Z,5.59
2018-04-01T11:47:47.771Z,5.67
2018-04-01T11:50:20.821Z,5.66
2018-04-01T11:52:53.893Z,5.69
2018-04-01T11:55:27.024Z,5.74
2018-04-01T11:58:00.161Z,5.69
2018-04-01T12:00:33.398Z,5.68
2018-04-01T12:03:06.614Z,5.73
2018-04-01T12:05:39.602Z,5.82
2018-04-01T12:08:12.710Z,5.85
2018-04-01T12:10:45.947Z,5.91
2018-04-01T12:13:19.073Z,6.04
2018-04-01T12:15:52.249Z,6.05
2018-04-01T12:18:25.448Z,6.15
2018-04-01T12:20:58.873Z,6.02
2018-04-01T12:23:32.021Z,5.94
2018-04-01T12:26:05.223Z,5.80
2018-04-01T12:28:38.327Z,5.77
2018-04-01T12:31:11.336Z,5.80
2018-04-01T12:33:44.517Z,5.90
2018-04-01T12:36:17.529Z,5.95
2018-04-01T12:38:50.607Z,5.90
2018-04-01T12:44:03.138Z,5.77
2018-04-01T12:46:36.194Z,5.82
2018-04-01T12:49:09.403Z,5.96
2018-04-01T12:51:42.436Z,6.14
2018-04-01T12:54:15.573Z,6.28
2018-04-01T12:56:48.889Z,6.41
2018-04-01T12:59:21.977Z,6.58
2018-04-01T13:01:56.025Z,6.77
2018-04-01T13:04:29.289Z,7.24
2018-04-01T13:07:02.266Z,7.53
2018-04-01T13:09:35.478Z,7.71
2018-04-01T13:12:08.635Z,7.39
2018-04-01T13:14:41.840Z,7.59
2018-04-01T13:17:14.876Z,7.68
2018-04-01T13:19:48.002Z,7.91
2018-04-01T13:22:21.142Z,7.84
2018-04-01T13:24:54.290Z,7.77
2018-04-01T13:27:27.283Z,7.35
2018-04-01T13:30:00.509Z,7.20
2018-04-01T13:32:33.506Z,7.06
2018-04-01T13:35:06.642Z,7.23
2018-04-01T13:37:39.702Z,7.23
2018-04-01T13:40:12.753Z,7.26
2018-04-01T13:42:45.819Z,7.14
2018-04-01T13:45:19.017Z,7.07
2018-04-01T13:47:52.074Z,7.11
2018-04-01T13:50:25.148Z,7.08
2018-04-01T13:52:58.337Z,7.10
2018-04-01T13:55:31.578Z,7.19
2018-04-01T13:58:04.609Z,7.24
2018-04-01T14:00:37.596Z,7.46
2018-04-01T14:03:10.758Z,7.45
2018-04-01T14:05:44.011Z,7.59
2018-04-01T14:08:17.372Z,7.52
2018-04-01T14:10:50.746Z,7.25
2018-04-01T14:13:23.903Z,7.06
2018-04-01T14:15:57.034Z,7.13
2018-04-01T14:18:30.342Z,7.23
2018-04-01T14:21:03.368Z,7.32
2018-04-01T14:23:36.576Z,7.38
2018-04-01T14:26:09.735Z,7.37
2018-04-01T14:28:42.973Z,7.41
2018-04-01T14:31:15.965Z,7.36
2018-04-01T14:33:49.125Z,7.27
2018-04-01T14:36:22.347Z,7.24
2018-04-01T14:38:55.350Z,7.13
2018-04-01T14:41:28.518Z,7.04
2018-04-01T14:44:01.591Z,6.93
2018-04-01T14:46:34.722Z,6.81
2018-04-01T14:49:07.689Z,6.72
2018-04-01T14:51:40.813Z,6.67
2018-04-01T14:54:13.830Z,6.64
2018-04-01T14:56:46.954Z,6.44
2018-04-01T14:59:19.977Z,6.35
2018-04-01T15:01:53.013Z,6.21
2018-04-01T15:04:26.078Z,5.91
2018-04-01T15:06:59.158Z,5.85
2018-04-01T15:09:32.234Z,5.78
2018-04-01T15:12:05.397Z,5.72
2018-04-01T15:14:38.458Z,5.57
2018-04-01T15:17:11.750Z,5.62
2018-04-01T15:19:44.938Z,5.51
2018-04-01T15:22:17.950Z,5.36
2018-04-01T15:24:51.178Z,5.38
2018-04-01T15:27:24.325Z,5.30
2018-04-01T15:29:57.381Z,5.30
2018-04-01T15:32:30.622Z,5.25
2018-04-01T15:35:03.675Z,5.20
2018-04-01T15:37:36.905Z,5.12
2018-04-01T15:40:09.960Z,5.19
2018-04-01T15:42:43.021Z,5.20
2018-04-01T15:45:16.030Z,5.13
2018-04-01T15:47:49.136Z,5.18
2018-04-01T15:50:22.305Z,5.20
2018-04-01T15:52:55.487Z,5.29
2018-04-01T15:55:28.703Z,5.21
2018-04-01T15:58:01.864Z,5.20
2018-04-01T16:00:35.117Z,5.13
2018-04-01T16:03:08.245Z,5.13
2018-04-01T16:05:41.270Z,5.18
2018-04-01T16:08:14.338Z,5.29
2018-04-01T16:10:47.362Z,5.23
2018-04-01T16:13:20.565Z,5.31
2018-04-01T16:15:53.575Z,5.24
2018-04-01T16:18:26.816Z,5.16
2018-04-01T16:20:59.934Z,5.18
2018-04-01T16:23:33.126Z,5.16
2018-04-01T16:26:06.349Z,5.36
2018-04-01T16:28:39.606Z,5.25
2018-04-01T16:31:12.662Z,5.17
2018-04-01T16:33:45.914Z,5.06
2018-04-01T16:36:19.072Z,5.21
2018-04-01T16:38:52.206Z,5.23
2018-04-01T16:41:25.309Z,5.21
2018-04-01T16:43:58.450Z,5.11
2018-04-01T16:46:31.525Z,5.18
2018-04-01T16:49:04.586Z,5.22
2018-04-01T16:51:37.794Z,5.19
2018-04-01T16:54:10.869Z,5.08
2018-04-01T16:56:44.125Z,5.12
2018-04-01T16:59:17.429Z,5.06
2018-04-01T17:01:50.407Z,5.19
2018-04-01T17:04:23.673Z,5.16
2018-04-01T17:06:56.725Z,5.23
2018-04-01T17:09:30.005Z,5.25
2018-04-01T17:12:03.214Z,5.26
2018-04-01T17:14:36.478Z,5.20
2018-04-01T17:17:09.768Z,5.13
2018-04-01T17:19:42.907Z,4.99
2018-04-01T17:22:15.893Z,5.04
2018-04-01T17:24:48.978Z,5.09
2018-04-01T17:27:22.017Z,5.12
2018-04-01T17:29:55.153Z,5.11
2018-04-01T17:32:28.387Z,5.11
2018-04-01T17:35:01.440Z,5.10
2018-04-01T17:37:34.429Z,5.10
2018-04-01T17:40:07.538Z,5.10
2018-04-01T17:42:40.698Z,5.08
2018-04-01T17:45:13.817Z,5.03
2018-04-01T17:47:46.877Z,5.07
2018-04-01T17:50:20.068Z,5.13
2018-04-01T17:52:53.303Z,5.08
2018-04-01T17:55:26.521Z,5.13
2018-04-01T17:57:59.505Z,5.12
2018-04-01T18:00:32.711Z,5.11
2018-04-01T18:03:05.694Z,5.02
2018-04-01T18:05:38.975Z,5.09
2018-04-01T18:08:12.086Z,5.08
2018-04-01T18:10:45.225Z,5.12
2018-04-01T18:13:18.460Z,5.07
2018-04-01T18:15:51.685Z,5.00
2018-04-01T18:18:25.066Z,5.05
2018-04-01T18:20:58.091Z,5.07
2018-04-01T18:23:31.143Z,5.05
2018-04-01T18:26:04.301Z,5.08
2018-04-01T18:28:37.541Z,5.07
2018-04-01T18:31:10.727Z,5.00
2018-04-01T18:33:43.869Z,4.99
2018-04-01T18:36:16.998Z,4.98
2018-04-01T18:38:50.023Z,4.94
2018-04-01T18:41:23.189Z,4.97
2018-04-01T18:43:56.241Z,4.94
2018-04-01T18:46:29.526Z,4.92
2018-04-01T18:49:02.586Z,4.92
2018-04-01T18:51:35.682Z,4.95
2018-04-01T18:54:08.703Z,4.95
2018-04-01T18:56:42.162Z,4.92
2018-04-01T18:59:15.171Z,4.99
2018-04-01T19:01:48.326Z,4.94
2018-04-01T19:04:21.603Z,4.97
2018-04-01T19:06:54.721Z,4.90
2018-04-01T19:09:27.766Z,4.84
2018-04-01T19:12:00.967Z,4.83
2018-04-01T19:14:34.229Z,4.81
2018-04-01T19:17:08.757Z,4.77
2018-04-01T19:19:42.419Z,4.80
2018-04-01T19:22:16.206Z,4.81
2018-04-01T19:24:49.754Z,4.82
2018-04-01T19:27:23.286Z,4.83
2018-04-01T19:29:57.110Z,4.76
2018-04-01T19:32:30.903Z,4.76
2018-04-01T19:35:04.512Z,4.76
2018-04-01T19:37:38.141Z,4.85
2018-04-01T19:40:11.938Z,4.89
2018-04-01T19:42:45.497Z,4.89
2018-04-01T19:45:19.190Z,4.88
2018-04-01T19:47:52.998Z,4.97
2018-04-01T19:50:26.698Z,4.89
2018-04-01T19:53:00.502Z,4.87
2018-04-01T19:55:34.089Z,4.85
2018-04-01T19:58:07.649Z,4.82
2018-04-01T20:00:41.229Z,4.81
2018-04-01T20:03:14.901Z,4.80
2018-04-01T20:05:48.583Z,4.77
2018-04-01T20:08:22.241Z,4.78
2018-04-01T20:10:55.829Z,4.78
2018-04-01T20:13:29.330Z,4.83
2018-04-01T20:16:02.885Z,4.84
2018-04-01T20:18:36.474Z,4.87
2018-04-01T20:21:10.209Z,4.80
2018-04-01T20:23:43.902Z,4.80
2018-04-01T20:26:17.555Z,4.81
2018-04-01T20:28:51.322Z,4.81
2018-04-01T20:31:24.874Z,4.79
2018-04-01T20:33:58.518Z,4.84
2018-04-01T20:39:31.041Z,4.77
2018-04-01T20:42:04.702Z,4.77
2018-04-01T20:44:38.332Z,4.77
2018-04-01T20:47:11.915Z,4.77
2018-04-01T20:49:45.741Z,4.81
2018-04-01T20:52:19.588Z,4.78
2018-04-01T20:54:53.325Z,4.82
2018-04-01T20:57:26.941Z,4.88
2018-04-01T21:00:00.578Z,4.88
2018-04-01T21:02:34.201Z,4.85
2018-04-01T21:05:07.824Z,4.88
2018-04-01T21:07:41.553Z,4.89
2018-04-01T21:10:15.162Z,4.87
2018-04-01T21:12:48.756Z,4.88
2018-04-01T21:15:22.325Z,4.93
2018-04-01T21:17:56.108Z,4.92
2018-04-01T21:20:29.669Z,4.97
2018-04-01T21:23:03.222Z,4.95
2018-04-01T21:25:36.877Z,4.89
2018-04-01T21:28:10.547Z,4.90
2018-04-01T21:30:44.208Z,4.83
2018-04-01T21:33:17.886Z,4.87
2018-04-01T21:35:51.630Z,4.79
2018-04-01T21:38:25.311Z,4.85
2018-04-01T21:40:59.094Z,4.84
2018-04-01T21:43:32.641Z,4.89
2018-04-01T21:46:06.281Z,4.75
2018-04-01T21:48:40.022Z,4.74
2018-04-01T21:51:13.603Z,4.69
2018-04-01T21:53:47.312Z,4.75
2018-04-01T21:56:21.121Z,4.69
2018-04-01T21:58:54.698Z,4.69
2018-04-01T22:01:28.270Z,4.68
2018-04-01T22:04:01.973Z,4.67
2018-04-01T22:06:35.620Z,4.62
2018-04-01T22:09:09.137Z,4.65
2018-04-01T22:11:42.809Z,4.65
2018-04-01T22:14:16.524Z,4.60
2018-04-01T22:16:50.157Z,4.58
2018-04-01T22:19:23.710Z,4.59
2018-04-01T22:21:57.719Z,4.63
2018-04-01T22:24:31.233Z,4.63
2018-04-01T22:27:04.885Z,4.64
2018-04-01T22:29:38.437Z,4.69
2018-04-01T22:32:12.132Z,4.63
2018-04-01T22:34:45.682Z,4.64
2018-04-01T22:37:19.481Z,4.61
2018-04-01T22:39:53.038Z,4.62
2018-04-01T22:42:26.659Z,4.64
2018-04-01T22:45:00.327Z,4.67
2018-04-01T22:47:33.992Z,4.66
2018-04-01T22:50:07.665Z,4.51
2018-04-01T22:52:41.350Z,4.48
2018-04-01T22:55:15.017Z,4.44
2018-04-01T22:57:48.618Z,4.43
2018-04-01T23:00:22.191Z,4.45
2018-04-01T23:02:55.729Z,4.49
2018-04-01T23:05:29.381Z,4.49
2018-04-01T23:08:03.061Z,4.52
2018-04-01T23:10:36.633Z,4.57
2018-04-01T23:13:10.210Z,4.57
2018-04-01T23:15:43.753Z,4.59
2018-04-01T23:18:17.385Z,4.58
2018-04-01T23:20:51.170Z,4.55
2018-04-01T23:23:24.833Z,4.55
2018-04-01T23:25:58.457Z,4.48
2018-04-01T23:28:32.134Z,4.44
2018-04-01T23:31:05.911Z,4.37
2018-04-01T23:33:39.614Z,4.33
2018-04-01T23:36:13.306Z,4.31
2018-04-01T23:38:46.994Z,4.31
2018-04-01T23:41:20.670Z,4.28
2018-04-01T23:43:54.280Z,4.25
2018-04-01T23:46:27.949Z,4.25
2018-04-01T23:49:01.614Z,4.25
2018-04-01T23:51:35.284Z,4.23
2018-04-01T23:54:08.784Z,4.28
2018-04-01T23:56:42.471Z,4.25
2018-04-01T23:59:16.105Z,4.25
